Main page
METAR-TAF:

METAR-TAF

Airports :

Meadow Lake Airport

Meadow Lake, Saskatchewan, Canada

latitude: 54-08N, longitude: 108-31W, elevation: 480 m

Current weather observation

The report was made 2 hours and 55 minutes ago, at 00:00 UTC
Wind 2 kt from the East/Northeast
Temperature -18°C
Humidity 77%
Pressure 1015 hPa
Visibility: 24.1 km
Few clouds at a height of 1400 ft
Few clouds at a height of 16000 ft

METAR: CYLJ 080000Z 06002KT 15SM FEW014 FEW160 M18/M21 A2998 RMK SC1AC2 SC TR LAST STFD OB/NXT 08 1200UTC SLP198

Time: 20:55 (02:55 UTC)


TAF: missing

Weather observations and forecasts of more than 4000 airports (METAR and TAF reports).

The available stations are represented by yellow and red dots on the map.

Hover mouse over dot to see the name of the station.

Then click to see weather observations and forecasts.

To change the map : click on the green buttons with a black cross to zoom in, on the green button with a dash to zoom out, or on the green arrows for adjacent maps.


METAR-TAF: